Observation data for Morton on 01/22/2019      Previous  Date  Next       Current Mesonet Observations  Soil Data  Daily Summary Page  Observations in Plain Language
KMNS 220600Z 18015G20KT 11/M02 A2964 RMK A01 T01111019  RH  041%=      5-min Rain = 0
KMNS 220605Z 18015KT 11/M02 A2964 RMK A01 T01081018  RH  042%=      5-min Rain = 0
KMNS 220610Z 19014KT 11/M02 A2965 RMK A01 T01061018  RH  042%=      5-min Rain = 0
KMNS 220615Z 19014G19KT 11/M02 A2965 RMK A01 T01051018  RH  043%=      5-min Rain = 0
KMNS 220620Z 19014KT 10/M02 A2965 RMK A01 T01031018  RH  043%=      5-min Rain = 0
KMNS 220625Z 19014G19KT 10/M02 A2965 RMK A01 T01011017  RH  044%=      5-min Rain = 0
KMNS 220630Z 19013G18KT 10/M02 A2965 RMK A01 T01001017  RH  044%=      5-min Rain = 0
KMNS 220635Z 19016G21KT 10/M02 A2965 RMK A01 T01001016  RH  045%=      5-min Rain = 0
KMNS 220640Z 19015G20KT 10/M02 A2965 RMK A01 T00981016  RH  045%=      5-min Rain = 0
KMNS 220645Z 19015G20KT 10/M02 A2965 RMK A01 T00971015  RH  046%=      5-min Rain = 0
KMNS 220650Z 19014G19KT 10/M02 A2966 RMK A01 T00961015  RH  046%=      5-min Rain = 0
KMNS 220655Z 19015KT 09/M01 A2966 RMK A01 T00941014  RH  047%=      5-min Rain = 0
KMNS 220700Z 19015G20KT 09/M01 A2966 RMK A01 T00941014  RH  047%=      5-min Rain = 0
KMNS 220705Z 19015G20KT 09/M01 A2966 RMK A01 T00921013  RH  048%=      5-min Rain = 0
KMNS 220710Z 19015KT 09/M01 A2966 RMK A01 T00901013  RH  049%=      5-min Rain = 0
KMNS 220715Z 19014KT 09/M01 A2966 RMK A01 T00891012  RH  049%=      5-min Rain = 0
KMNS 220720Z 19015KT 09/M01 A2966 RMK A01 T00881011  RH  050%=      5-min Rain = 0
KMNS 220725Z 19015KT 09/M01 A2966 RMK A01 T00881010  RH  051%=      5-min Rain = 0
KMNS 220730Z 19016KT 09/M01 A2966 RMK A01 T00871010  RH  051%=      5-min Rain = 0
KMNS 220735Z 19015KT 09/M01 A2966 RMK A01 T00861009  RH  052%=      5-min Rain = 0
KMNS 220740Z 19015KT 09/M01 A2966 RMK A01 T00851008  RH  052%=      5-min Rain = 0
KMNS 220745Z 20014KT 08/M01 A2965 RMK A01 T00841007  RH  053%=      5-min Rain = 0
KMNS 220750Z 20015KT 08/M01 A2965 RMK A01 T00841006  RH  054%=      5-min Rain = 0
KMNS 220755Z 19015KT 08/M01 A2965 RMK A01 T00831005  RH  054%=      5-min Rain = 0
KMNS 220800Z 19016G21KT 08/M01 A2965 RMK A01 T00821005  RH  055%=      5-min Rain = 0
KMNS 220805Z 19015KT 08/M00 A2965 RMK A01 T00821004  RH  055%=      5-min Rain = 0
KMNS 220810Z 19015KT 08/M00 A2965 RMK A01 T00801003  RH  056%=      5-min Rain = 0
KMNS 220815Z 19016G22KT 08/M00 A2965 RMK A01 T00801002  RH  057%=      5-min Rain = 0
KMNS 220820Z 19015KT 08/M00 A2965 RMK A01 T00781002  RH  057%=      5-min Rain = 0
KMNS 220825Z 20014KT 08/M00 A2965 RMK A01 T00761002  RH  058%=      5-min Rain = 0
KMNS 220830Z 23014KT 08/M00 A2967 RMK A01 T00751001  RH  059%=      5-min Rain = 0
KMNS 220835Z 28012G18KT 07/M01 A2969 RMK A01 T00741008  RH  057%=      5-min Rain = 0
KMNS 220840Z 23016G22KT 08/M01 A2967 RMK A01 T00811005  RH  055%=      5-min Rain = 0
KMNS 220845Z 24014G21KT 08/M01 A2969 RMK A01 T00831007  RH  053%=      5-min Rain = 0
KMNS 220850Z 26011KT 08/M01 A2969 RMK A01 T00811009  RH  053%=      5-min Rain = 0
KMNS 220855Z 25010KT 08/M01 A2969 RMK A01 T00781010  RH  054%=      5-min Rain = 0
KMNS 220900Z 24011KT 08/M01 A2969 RMK A01 T00781010  RH  054%=      5-min Rain = 0
KMNS 220905Z 25011KT 08/M01 A2969 RMK A01 T00781010  RH  054%=      5-min Rain = 0
KMNS 220910Z 24011KT 08/M01 A2969 RMK A01 T00771011  RH  054%=      5-min Rain = 0
KMNS 220915Z 24009KT 07/M01 A2969 RMK A01 T00731013  RH  055%=      5-min Rain = 0
KMNS 220920Z 26007KT 07/M01 A297 RMK A01 T00691014  RH  056%=      5-min Rain = 0
KMNS 220925Z 27008KT 07/M02 A297 RMK A01 T00681015  RH  056%=      5-min Rain = 0
KMNS 220930Z 26007KT 07/M02 A297 RMK A01 T00661018  RH  056%=      5-min Rain = 0
KMNS 220935Z 27008KT 06/M02 A2971 RMK A01 T00621020  RH  056%=      5-min Rain = 0
KMNS 220940Z 29010G15KT 06/M02 A2971 RMK A01 T00621021  RH  056%=      5-min Rain = 0
KMNS 220945Z 30010KT 07/M03 A2971 RMK A01 T00691028  RH  050%=      5-min Rain = 0
KMNS 220950Z 31011KT 06/M03 A2971 RMK A01 T00641033  RH  050%=      5-min Rain = 0
KMNS 220955Z 31012KT 07/M04 A2971 RMK A01 T00711040  RH  045%=      5-min Rain = 0
KMNS 221000Z 31009KT 06/M04 A2971 RMK A01 T00641040  RH  047%=      5-min Rain = 0
KMNS 221005Z 31007KT 06/M04 A2971 RMK A01 T00561041  RH  050%=      5-min Rain = 0
KMNS 221010Z 31007KT 05/M04 A2971 RMK A01 T00491042  RH  052%=      5-min Rain = 0
KMNS 221015Z 31008KT 04/M04 A2971 RMK A01 T00421043  RH  054%=      5-min Rain = 0
KMNS 221020Z 31009KT 04/M04 A2971 RMK A01 T00401043  RH  055%=      5-min Rain = 0
KMNS 221025Z 32010KT 05/M04 A2971 RMK A01 T00451042  RH  054%=      5-min Rain = 0
KMNS 221030Z 32010KT 05/M04 A297 RMK A01 T00491042  RH  052%=      5-min Rain = 0
KMNS 221035Z 32008KT 05/M04 A2971 RMK A01 T00491044  RH  051%=      5-min Rain = 0
KMNS 221040Z 32007KT 04/M05 A2971 RMK A01 T00421046  RH  053%=      5-min Rain = 0
KMNS 221045Z 32006KT 04/M05 A2971 RMK A01 T00371048  RH  054%=      5-min Rain = 0
KMNS 221050Z 32006KT 03/M05 A2971 RMK A01 T00331048  RH  055%=      5-min Rain = 0
KMNS 221055Z 32006KT 03/M05 A2971 RMK A01 T00271049  RH  058%=      5-min Rain = 0
KMNS 221100Z 32006KT 02/M05 A2971 RMK A01 T00231050  RH  059%=      5-min Rain = 0
KMNS 221105Z 31005KT 02/M05 A2971 RMK A01 T00191050  RH  061%=      5-min Rain = 0
KMNS 221110Z 30004KT 02/M05 A2971 RMK A01 T00231047  RH  060%=      5-min Rain = 0
KMNS 221115Z 30004KT 03/M05 A2971 RMK A01 T00251047  RH  059%=      5-min Rain = 0
KMNS 221120Z 30005KT 02/M05 A2971 RMK A01 T00221046  RH  061%=      5-min Rain = 0
KMNS 221125Z 30006KT 02/M05 A2971 RMK A01 T00181046  RH  063%=      5-min Rain = 0
KMNS 221130Z 30007KT 02/M05 A2971 RMK A01 T00171047  RH  063%=      5-min Rain = 0
KMNS 221135Z 30007KT 02/M04 A2971 RMK A01 T00201044  RH  063%=      5-min Rain = 0
KMNS 221140Z 30007KT 03/M04 A2971 RMK A01 T00261044  RH  060%=      5-min Rain = 0
KMNS 221145Z 30007KT 03/M05 A2971 RMK A01 T00271046  RH  059%=      5-min Rain = 0
KMNS 221150Z 30007KT 03/M05 A2971 RMK A01 T00261048  RH  058%=      5-min Rain = 0
KMNS 221155Z 30006KT 02/M05 A2971 RMK A01 T00211051  RH  059%=      5-min Rain = 0
KMNS 221200Z 29007KT 02/M05 A2972 RMK A01 T00211049  RH  060%=      5-min Rain = 0
KMNS 221205Z 30007KT 03/M05 A2972 RMK A01 T00261048  RH  058%=      5-min Rain = 0
KMNS 221210Z 29007KT 03/M05 A2972 RMK A01 T00251050  RH  058%=      5-min Rain = 0
KMNS 221215Z 30006KT 02/M05 A2972 RMK A01 T00221050  RH  059%=      5-min Rain = 0
KMNS 221220Z 30007KT 02/M05 A2972 RMK A01 T00181051  RH  060%=      5-min Rain = 0
KMNS 221225Z 29007KT 02/M05 A2973 RMK A01 T00151052  RH  061%=      5-min Rain = 0
KMNS 221230Z 29006KT 01/M05 A2973 RMK A01 T00141051  RH  062%=      5-min Rain = 0
KMNS 221235Z 30008KT 01/M05 A2973 RMK A01 T00111053  RH  063%=      5-min Rain = 0
KMNS 221240Z 30008KT 01/M05 A2973 RMK A01 T00141051  RH  062%=      5-min Rain = 0
KMNS 221245Z 29008KT 02/M05 A2973 RMK A01 T00151049  RH  062%=      5-min Rain = 0
KMNS 221250Z 29008KT 02/M05 A2973 RMK A01 T00181047  RH  062%=      5-min Rain = 0
KMNS 221255Z 29010KT 02/M05 A2974 RMK A01 T00231046  RH  060%=      5-min Rain = 0
KMNS 221300Z 29010KT 03/M05 A2973 RMK A01 T00261047  RH  059%=      5-min Rain = 0
KMNS 221305Z 29009KT 03/M05 A2974 RMK A01 T00251049  RH  059%=      5-min Rain = 0
KMNS 221310Z 29009KT 02/M05 A2974 RMK A01 T00211050  RH  060%=      5-min Rain = 0
KMNS 221315Z 29009KT 02/M05 A2974 RMK A01 T00191050  RH  060%=      5-min Rain = 0
KMNS 221320Z 30009KT 02/M05 A2973 RMK A01 T00211049  RH  060%=      5-min Rain = 0
KMNS 221325Z 30009KT 02/M05 A2973 RMK A01 T00211052  RH  059%=      5-min Rain = 0
KMNS 221330Z 30009KT 02/M05 A2973 RMK A01 T00181053  RH  059%=      5-min Rain = 0
KMNS 221335Z 30009KT 02/M05 A2974 RMK A01 T00181052  RH  060%=      5-min Rain = 0
KMNS 221340Z 29010KT 02/M05 A2974 RMK A01 T00231051  RH  058%=      5-min Rain = 0
KMNS 221345Z 29011KT 03/M05 A2974 RMK A01 T00301053  RH  055%=      5-min Rain = 0
KMNS 221350Z 29011KT 03/M06 A2974 RMK A01 T00331055  RH  053%=      5-min Rain = 0
KMNS 221355Z 29013KT 04/M06 A2974 RMK A01 T00351057  RH  051%=      5-min Rain = 0
KMNS 221400Z 30014KT 04/M06 A2975 RMK A01 T00351059  RH  050%=      5-min Rain = 0
KMNS 221405Z 30013KT 03/M06 A2975 RMK A01 T00251061  RH  053%=      5-min Rain = 0
KMNS 221410Z 30012KT 02/M06 A2975 RMK A01 T00211060  RH  055%=      5-min Rain = 0
KMNS 221415Z 30011KT 03/M06 A2976 RMK A01 T00251061  RH  053%=      5-min Rain = 0
KMNS 221420Z 30010KT 03/M06 A2976 RMK A01 T00281061  RH  052%=      5-min Rain = 0
KMNS 221425Z 30009KT 03/M06 A2977 RMK A01 T00301061  RH  051%=      5-min Rain = 0
KMNS 221430Z 30010KT 04/M06 A2977 RMK A01 T00351061  RH  050%=      5-min Rain = 0
KMNS 221435Z 30009KT 04/M06 A2977 RMK A01 T00401060  RH  048%=      5-min Rain = 0
KMNS 221440Z 29008KT 05/M06 A2977 RMK A01 T00461059  RH  046%=      5-min Rain = 0
KMNS 221445Z 29008KT 05/M06 A2978 RMK A01 T00491060  RH  045%=      5-min Rain = 0
KMNS 221450Z 30008KT 05/M06 A2978 RMK A01 T00501060  RH  045%=      5-min Rain = 0
KMNS 221455Z 30010KT 05/M06 A2978 RMK A01 T00541061  RH  043%=      5-min Rain = 0
KMNS 221500Z 29010KT 06/M06 A2978 RMK A01 T00571062  RH  042%=      5-min Rain = 0
KMNS 221505Z 30012KT 06/M06 A2979 RMK A01 T00571064  RH  041%=      5-min Rain = 0
KMNS 221510Z 30011KT 06/M07 A2979 RMK A01 T00581066  RH  040%=      5-min Rain = 0
KMNS 221515Z 30011G16KT 06/M07 A2979 RMK A01 T00591069  RH  039%=      5-min Rain = 0
KMNS 221520Z 30012KT 06/M07 A2979 RMK A01 T00621073  RH  037%=      5-min Rain = 0
KMNS 221525Z 30012G18KT 06/M08 A298 RMK A01 T00621076  RH  037%=      5-min Rain = 0
KMNS 221530Z 30013KT 06/M08 A298 RMK A01 T00611078  RH  036%=      5-min Rain = 0
KMNS 221535Z 30013KT 06/M08 A298 RMK A01 T00631078  RH  036%=      5-min Rain = 0
KMNS 221540Z 30013KT 06/M08 A2981 RMK A01 T00631079  RH  035%=      5-min Rain = 0
KMNS 221545Z 31014KT 06/M08 A2982 RMK A01 T00631080  RH  035%=      5-min Rain = 0
KMNS 221550Z 31012G17KT 06/M08 A2982 RMK A01 T00621081  RH  035%=      5-min Rain = 0
KMNS 221555Z 31012G17KT 06/M08 A2982 RMK A01 T00591082  RH  035%=      5-min Rain = 0
KMNS 221600Z 31012KT 06/M08 A2983 RMK A01 T00581081  RH  036%=      5-min Rain = 0
KMNS 221605Z 31011KT 06/M08 A2983 RMK A01 T00571081  RH  036%=      5-min Rain = 0
KMNS 221610Z 32012G18KT 06/M08 A2984 RMK A01 T00591081  RH  036%=      5-min Rain = 0
KMNS 221615Z 33015G28KT 06/M08 A2985 RMK A01 T00581080  RH  036%=      5-min Rain = 0
KMNS 221620Z 00026G32KT 03/M05 A2986 RMK A01 T00321053  RH  054%=      5-min Rain = 0
KMNS 221625Z 01025G32KT 02/M04 A2986 RMK A01 T00221039  RH  064%=      5-min Rain = 0
KMNS 221630Z 01023G28KT 02/M03 A2986 RMK A01 T00221034  RH  067%=      5-min Rain = 0
KMNS 221635Z 00025G30KT 02/M03 A2986 RMK A01 T00211032  RH  068%=      5-min Rain = 0
KMNS 221640Z 00026KT 03/M03 A2987 RMK A01 T00251029  RH  067%=      5-min Rain = 0
KMNS 221645Z 00022G29KT 03/M03 A2987 RMK A01 T00291028  RH  067%=      5-min Rain = 0
KMNS 221650Z 01024G29KT 03/M03 A2988 RMK A01 T00321028  RH  065%=      5-min Rain = 0
KMNS 221655Z 00024G30KT 03/M03 A2988 RMK A01 T00341029  RH  064%=      5-min Rain = 0
KMNS 221700Z 36023G29KT 04/M03 A2988 RMK A01 T00351034  RH  061%=      5-min Rain = 0
KMNS 221705Z 00024G31KT 04/M04 A2988 RMK A01 T00351036  RH  060%=      5-min Rain = 0
KMNS 221710Z 00025G30KT 04/M04 A2989 RMK A01 T00381037  RH  058%=      5-min Rain = 0
KMNS 221715Z 00023G31KT 04/M04 A2989 RMK A01 T00361041  RH  058%=      5-min Rain = 0
KMNS 221720Z 36023G28KT 04/M05 A299 RMK A01 T00361046  RH  055%=      5-min Rain = 0
KMNS 221725Z 00023G28KT 03/M05 A2991 RMK A01 T00281049  RH  057%=      5-min Rain = 0
KMNS 221730Z 00023G28KT 03/M05 A2992 RMK A01 T00271050  RH  057%=      5-min Rain = 0
KMNS 221735Z 00023KT 03/M05 A2992 RMK A01 T00281052  RH  056%=      5-min Rain = 0
KMNS 221740Z 35024G31KT 03/M05 A2992 RMK A01 T00311052  RH  054%=      5-min Rain = 0
KMNS 221745Z 36023G29KT 04/M05 A2993 RMK A01 T00351052  RH  053%=      5-min Rain = 0
KMNS 221750Z 00024G30KT 04/M05 A2993 RMK A01 T00381052  RH  052%=      5-min Rain = 0
KMNS 221755Z 00025G32KT 03/M05 A2993 RMK A01 T00341053  RH  053%=      5-min Rain = 0
KMNS 221800Z 36023G31KT 03/M05 A2994 RMK A01 T00331053  RH  053%=      5-min Rain = 0
KMNS 221805Z 36025G32KT 03/M05 A2994 RMK A01 T00281053  RH  055%=      5-min Rain = 0
KMNS 221810Z 35024G30KT 03/M05 A2994 RMK A01 T00261053  RH  056%=      5-min Rain = 0
KMNS 221815Z 35025G32KT 03/M05 A2994 RMK A01 T00251054  RH  056%=      5-min Rain = 0
KMNS 221820Z 36025G30KT 03/M05 A2994 RMK A01 T00291052  RH  055%=      5-min Rain = 0
KMNS 221825Z 36025G30KT 02/M06 A2994 RMK A01 T00241055  RH  056%=      5-min Rain = 0
KMNS 221830Z 36024G31KT 03/M05 A2994 RMK A01 T00271054  RH  055%=      5-min Rain = 0
KMNS 221835Z 35024G31KT 03/M06 A2994 RMK A01 T00291060  RH  052%=      5-min Rain = 0
KMNS 221840Z 00023G29KT 04/M06 A2994 RMK A01 T00351059  RH  050%=      5-min Rain = 0
KMNS 221845Z 36026G33KT 04/M06 A2994 RMK A01 T00361063  RH  049%=      5-min Rain = 0
KMNS 221850Z 01024G31KT 03/M07 A2994 RMK A01 T00331068  RH  048%=      5-min Rain = 0
KMNS 221855Z 36023G31KT 03/M07 A2994 RMK A01 T00291072  RH  047%=      5-min Rain = 0
KMNS 221900Z 00024G30KT 04/M07 A2994 RMK A01 T00361074  RH  044%=      5-min Rain = 0
KMNS 221905Z 36023G29KT 04/M07 A2994 RMK A01 T00411074  RH  043%=      5-min Rain = 0
KMNS 221910Z 01025G34KT 04/M08 A2994 RMK A01 T00381078  RH  042%=      5-min Rain = 0
KMNS 221915Z 36024G32KT 04/M08 A2994 RMK A01 T00351079  RH  043%=      5-min Rain = 0
KMNS 221920Z 36026G35KT 04/M08 A2994 RMK A01 T00431077  RH  041%=      5-min Rain = 0
KMNS 221925Z 35023G29KT 04/M08 A2995 RMK A01 T00441077  RH  041%=      5-min Rain = 0
KMNS 221930Z 35025G32KT 05/M08 A2995 RMK A01 T00451080  RH  040%=      5-min Rain = 0
KMNS 221935Z 35023G29KT 04/M08 A2995 RMK A01 T00401082  RH  041%=      5-min Rain = 0
KMNS 221940Z 36024G33KT 04/M08 A2995 RMK A01 T00441082  RH  039%=      5-min Rain = 0
KMNS 221945Z 35024G30KT 05/M09 A2995 RMK A01 T00451086  RH  038%=      5-min Rain = 0
KMNS 221950Z 36025G31KT 04/M09 A2995 RMK A01 T00441091  RH  037%=      5-min Rain = 0
KMNS 221955Z 35023G29KT 05/M09 A2996 RMK A01 T00471092  RH  036%=      5-min Rain = 0
KMNS 222000Z 35021G28KT 05/M10 A2996 RMK A01 T00471095  RH  035%=      5-min Rain = 0
KMNS 222005Z 35024G30KT 05/M10 A2995 RMK A01 T00491097  RH  034%=      5-min Rain = 0
KMNS 222010Z 35023G31KT 05/M10 A2996 RMK A01 T00501100  RH  033%=      5-min Rain = 0
KMNS 222015Z 34023G32KT 05/M10 A2996 RMK A01 T00491102  RH  033%=      5-min Rain = 0
KMNS 222020Z 35025G31KT 05/M10 A2996 RMK A01 T00481104  RH  032%=      5-min Rain = 0
KMNS 222025Z 35025G31KT 05/M11 A2996 RMK A01 T00481105  RH  032%=      5-min Rain = 0
KMNS 222030Z 35025G30KT 05/M11 A2996 RMK A01 T00461107  RH  032%=      5-min Rain = 0
KMNS 222035Z 34023G35KT 05/M11 A2997 RMK A01 T00501106  RH  031%=      5-min Rain = 0
KMNS 222040Z 36024G30KT 05/M11 A2997 RMK A01 T00481108  RH  031%=      5-min Rain = 0
KMNS 222045Z 35023G31KT 05/M11 A2998 RMK A01 T00481109  RH  031%=      5-min Rain = 0
KMNS 222050Z 35025G30KT 05/M11 A2998 RMK A01 T00471113  RH  030%=      5-min Rain = 0
KMNS 222055Z 36024G30KT 04/M11 A2998 RMK A01 T00431113  RH  031%=      5-min Rain = 0
KMNS 222100Z 35025G32KT 05/M11 A2998 RMK A01 T00451111  RH  031%=      5-min Rain = 0
KMNS 222105Z 35025G32KT 05/M11 A2999 RMK A01 T00451110  RH  031%=      5-min Rain = 0
KMNS 222110Z 36022G29KT 05/M11 A2999 RMK A01 T00461108  RH  031%=      5-min Rain = 0
KMNS 222115Z 36027G33KT 05/M11 A2999 RMK A01 T00471108  RH  031%=      5-min Rain = 0
KMNS 222120Z 35024G33KT 05/M11 A2999 RMK A01 T00461107  RH  032%=      5-min Rain = 0
KMNS 222125Z 35023G30KT 05/M11 A30 RMK A01 T00511107  RH  031%=      5-min Rain = 0
KMNS 222130Z 36026G31KT 05/M11 A30 RMK A01 T00481106  RH  032%=      5-min Rain = 0
KMNS 222135Z 35027G34KT 05/M11 A3001 RMK A01 T00471105  RH  032%=      5-min Rain = 0
KMNS 222140Z 36024G36KT 05/M11 A3001 RMK A01 T00481105  RH  032%=      5-min Rain = 0
KMNS 222145Z 36029G36KT 05/M11 A3001 RMK A01 T00481106  RH  032%=      5-min Rain = 0
KMNS 222150Z 34024G32KT 05/M11 A3001 RMK A01 T00481105  RH  032%=      5-min Rain = 0
KMNS 222155Z 35023G30KT 04/M11 A3001 RMK A01 T00441105  RH  033%=      5-min Rain = 0
KMNS 222200Z 35025G33KT 05/M10 A3002 RMK A01 T00471102  RH  033%=      5-min Rain = 0
KMNS 222205Z 36025G31KT 05/M10 A3002 RMK A01 T00451104  RH  033%=      5-min Rain = 0
KMNS 222210Z 35026G34KT 04/M10 A3003 RMK A01 T00431104  RH  033%=      5-min Rain = 0
KMNS 222215Z 35025G34KT 04/M11 A3004 RMK A01 T00391106  RH  034%=      5-min Rain = 0
KMNS 222220Z 35024G33KT 04/M10 A3004 RMK A01 T00411103  RH  034%=      5-min Rain = 0
KMNS 222225Z 35026G34KT 04/M10 A3004 RMK A01 T00401103  RH  034%=      5-min Rain = 0
KMNS 222230Z 36025G34KT 04/M10 A3005 RMK A01 T00381102  RH  035%=      5-min Rain = 0
KMNS 222235Z 36025G34KT 04/M10 A3005 RMK A01 T00401102  RH  035%=      5-min Rain = 0
KMNS 222240Z 35025G31KT 04/M11 A3005 RMK A01 T00401107  RH  033%=      5-min Rain = 0
KMNS 222245Z 35025G34KT 04/M11 A3005 RMK A01 T00361109  RH  034%=      5-min Rain = 0
KMNS 222250Z 35024G30KT 04/M11 A3006 RMK A01 T00361107  RH  034%=      5-min Rain = 0
KMNS 222255Z 35021G26KT 04/M11 A3006 RMK A01 T00371108  RH  034%=      5-min Rain = 0
KMNS 222300Z 36020G26KT 04/M11 A3006 RMK A01 T00381108  RH  033%=      5-min Rain = 0
KMNS 222305Z 00022G28KT 04/M11 A3006 RMK A01 T00351107  RH  034%=      5-min Rain = 0
KMNS 222310Z 00022G27KT 03/M11 A3007 RMK A01 T00341106  RH  035%=      5-min Rain = 0
KMNS 222315Z 00022G28KT 03/M11 A3007 RMK A01 T00341106  RH  035%=      5-min Rain = 0
KMNS 222320Z 35023KT 03/M11 A3007 RMK A01 T00321105  RH  036%=      5-min Rain = 0
KMNS 222325Z 35017G22KT 03/M10 A3008 RMK A01 T00321104  RH  036%=      5-min Rain = 0
KMNS 222330Z 36021G26KT 03/M10 A3008 RMK A01 T00311103  RH  036%=      5-min Rain = 0
KMNS 222335Z 36023G28KT 03/M10 A3008 RMK A01 T00301103  RH  037%=      5-min Rain = 0
KMNS 222340Z 36022G28KT 03/M10 A3009 RMK A01 T00291103  RH  037%=      5-min Rain = 0
KMNS 222345Z 36021G28KT 03/M10 A3009 RMK A01 T00271103  RH  037%=      5-min Rain = 0
KMNS 222350Z 36022G28KT 03/M10 A3009 RMK A01 T00261102  RH  038%=      5-min Rain = 0
KMNS 222355Z 36020G25KT 03/M10 A3009 RMK A01 T00251101  RH  039%=      5-min Rain = 0
KMNS 230000Z 00018KT 02/M10 A301 RMK A01 T00231099  RH  040%=      5-min Rain = 0
KMNS 230005Z 00018G24KT 02/M10 A301 RMK A01 T00211099  RH  041%=      5-min Rain = 0
KMNS 230010Z 36018G23KT 02/M10 A301 RMK A01 T00201098  RH  041%=      5-min Rain = 0
KMNS 230015Z 00016G21KT 02/M10 A3011 RMK A01 T00171098  RH  042%=      5-min Rain = 0
KMNS 230020Z 01015G20KT 01/M10 A3011 RMK A01 T00141096  RH  044%=      5-min Rain = 0
KMNS 230025Z 00015G20KT 01/M10 A3011 RMK A01 T00131095  RH  045%=      5-min Rain = 0
KMNS 230030Z 36015KT 01/M09 A3011 RMK A01 T00121093  RH  045%=      5-min Rain = 0
KMNS 230035Z 36014KT 01/M09 A3011 RMK A01 T00101092  RH  046%=      5-min Rain = 0
KMNS 230040Z 36012KT 01/M09 A3012 RMK A01 T00071093  RH  047%=      5-min Rain = 0
KMNS 230045Z 36013KT 01/M09 A3012 RMK A01 T00061092  RH  048%=      5-min Rain = 0
KMNS 230050Z 00013G18KT 01/M09 A3012 RMK A01 T00051091  RH  048%=      5-min Rain = 0
KMNS 230055Z 00014KT 01/M09 A3012 RMK A01 T00051091  RH  049%=      5-min Rain = 0
KMNS 230100Z 00014KT 00/M09 A3012 RMK A01 T00041090  RH  049%=      5-min Rain = 0
KMNS 230105Z 36014KT 00/M09 A3013 RMK A01 T00031090  RH  050%=      5-min Rain = 0
KMNS 230110Z 36013KT 00/M09 A3013 RMK A01 T00021089  RH  050%=      5-min Rain = 0
KMNS 230115Z 36013KT 00/09 A3013 RMK A01 T00000-89  RH  051%=      5-min Rain = 0
KMNS 230120Z 36013KT M00/M09 A3013 RMK A01 T10021089  RH  052%=      5-min Rain = 0
KMNS 230125Z 00011KT M01/M09 A3013 RMK A01 T10051090  RH  052%=      5-min Rain = 0
KMNS 230130Z 00009KT M01/M09 A3014 RMK A01 T10081091  RH  053%=      5-min Rain = 0
KMNS 230135Z 01009KT M01/M09 A3014 RMK A01 T10091090  RH  054%=      5-min Rain = 0
KMNS 230140Z 00008KT M01/M09 A3014 RMK A01 T10121091  RH  055%=      5-min Rain = 0
KMNS 230145Z 00008KT M01/M09 A3014 RMK A01 T10141092  RH  056%=      5-min Rain = 0
KMNS 230150Z 36008KT M02/M09 A3014 RMK A01 T10151091  RH  056%=      5-min Rain = 0
KMNS 230155Z 36008KT M02/M09 A3015 RMK A01 T10171091  RH  057%=      5-min Rain = 0
KMNS 230200Z 36007KT M02/M09 A3015 RMK A01 T10191092  RH  057%=      5-min Rain = 0
KMNS 230205Z 00006KT M02/M09 A3015 RMK A01 T10241094  RH  058%=      5-min Rain = 0
KMNS 230210Z 00006KT M03/M10 A3015 RMK A01 T10281096  RH  059%=      5-min Rain = 0
KMNS 230215Z 01007KT M03/M10 A3015 RMK A01 T10301097  RH  060%=      5-min Rain = 0
KMNS 230220Z 01007KT M03/M10 A3015 RMK A01 T10341100  RH  060%=      5-min Rain = 0
KMNS 230225Z 01008KT M04/M10 A3015 RMK A01 T10381101  RH  061%=      5-min Rain = 0
KMNS 230230Z 00008KT M04/M10 A3015 RMK A01 T10401101  RH  062%=      5-min Rain = 0
KMNS 230235Z 00008KT M04/M10 A3015 RMK A01 T10391098  RH  063%=      5-min Rain = 0
KMNS 230240Z 36008KT M04/M10 A3015 RMK A01 T10381096  RH  064%=      5-min Rain = 0
KMNS 230245Z 35007KT M04/M09 A3016 RMK A01 T10361094  RH  064%=      5-min Rain = 0
KMNS 230250Z 35007KT M04/M10 A3016 RMK A01 T10371095  RH  064%=      5-min Rain = 0
KMNS 230255Z 34007KT M04/M09 A3016 RMK A01 T10391094  RH  066%=      5-min Rain = 0
KMNS 230300Z 34008KT M04/M09 A3016 RMK A01 T10391093  RH  066%=      5-min Rain = 0
KMNS 230305Z 33009KT M04/M09 A3016 RMK A01 T10351089  RH  066%=      5-min Rain = 0
KMNS 230310Z 33008KT M04/M09 A3016 RMK A01 T10361090  RH  066%=      5-min Rain = 0
KMNS 230315Z 35010KT M03/M09 A3016 RMK A01 T10301088  RH  064%=      5-min Rain = 0
KMNS 230320Z 35011KT M03/M09 A3017 RMK A01 T10261091  RH  061%=      5-min Rain = 0
KMNS 230325Z 35011KT M03/M09 A3017 RMK A01 T10251093  RH  059%=      5-min Rain = 0
KMNS 230330Z 35010KT M03/M09 A3017 RMK A01 T10251094  RH  059%=      5-min Rain = 0
KMNS 230335Z 34010KT M02/M09 A3017 RMK A01 T10241094  RH  058%=      5-min Rain = 0
KMNS 230340Z 34009KT M02/M10 A3018 RMK A01 T10241095  RH  058%=      5-min Rain = 0
KMNS 230345Z 34009KT M03/M10 A3018 RMK A01 T10251096  RH  058%=      5-min Rain = 0
KMNS 230350Z 34009KT M03/M10 A3018 RMK A01 T10261096  RH  059%=      5-min Rain = 0
KMNS 230355Z 34009KT M03/M10 A3019 RMK A01 T10271096  RH  059%=      5-min Rain = 0
KMNS 230400Z 34009KT M03/M10 A3019 RMK A01 T10291097  RH  060%=      5-min Rain = 0
KMNS 230405Z 34009KT M03/M10 A3019 RMK A01 T10321097  RH  060%=      5-min Rain = 0
KMNS 230410Z 33009KT M03/M10 A3019 RMK A01 T10331097  RH  061%=      5-min Rain = 0
KMNS 230415Z 33009KT M03/M10 A3019 RMK A01 T10331097  RH  061%=      5-min Rain = 0
KMNS 230420Z 33009KT M04/M10 A3019 RMK A01 T10351099  RH  061%=      5-min Rain = 0
KMNS 230425Z 33009KT M04/M10 A3019 RMK A01 T10361099  RH  061%=      5-min Rain = 0
KMNS 230430Z 33009KT M04/M10 A3019 RMK A01 T10361100  RH  061%=      5-min Rain = 0
KMNS 230435Z 33009KT M04/M10 A3019 RMK A01 T10381101  RH  061%=      5-min Rain = 0
KMNS 230440Z 33008KT M04/M10 A3019 RMK A01 T10421102  RH  062%=      5-min Rain = 0
KMNS 230445Z 32008KT M05/M10 A3019 RMK A01 T10451103  RH  064%=      5-min Rain = 0
KMNS 230450Z 33008KT M05/M10 A3019 RMK A01 T10481104  RH  064%=      5-min Rain = 0
KMNS 230455Z 32007KT M05/M11 A3019 RMK A01 T10501105  RH  065%=      5-min Rain = 0
KMNS 230500Z 32008KT M05/M11 A3019 RMK A01 T10531107  RH  065%=      5-min Rain = 0
KMNS 230505Z 32008KT M05/M11 A3019 RMK A01 T10541106  RH  066%=      5-min Rain = 0
KMNS 230510Z 32007KT M05/M11 A3019 RMK A01 T10531106  RH  066%=      5-min Rain = 0
KMNS 230515Z 31007KT M06/M11 A3019 RMK A01 T10551107  RH  067%=      5-min Rain = 0
KMNS 230520Z 31007KT M06/M11 A3019 RMK A01 T10561107  RH  067%=      5-min Rain = 0
KMNS 230525Z 31007KT M06/M11 A3019 RMK A01 T10571108  RH  067%=      5-min Rain = 0
KMNS 230530Z 31007KT M06/M11 A302 RMK A01 T10591109  RH  067%=      5-min Rain = 0
KMNS 230535Z 31008KT M06/M11 A302 RMK A01 T10601110  RH  068%=      5-min Rain = 0
KMNS 230540Z 32008KT M06/M11 A302 RMK A01 T10621111  RH  068%=      5-min Rain = 0
KMNS 230545Z 32009KT M06/M11 A302 RMK A01 T10621110  RH  068%=      5-min Rain = 0
KMNS 230550Z 33009KT M06/M11 A302 RMK A01 T10601109  RH  068%=      5-min Rain = 0
KMNS 230555Z 33010KT M05/M10 A302 RMK A01 T10521104  RH  067%=      5-min Rain = 0

Page generated in 0.0092 seconds.